createdAt,value
2023-03-08T00:00:12.617Z,99177.75
2023-03-08T00:02:39.293Z,99144.81
2023-03-08T00:05:07.084Z,99180.31
2023-03-08T00:07:33.953Z,99149.88
2023-03-08T00:10:00.809Z,99122.75
2023-03-08T00:12:28.623Z,99150.81
2023-03-08T00:14:55.330Z,99104.91
2023-03-08T00:17:22.276Z,99121.88
2023-03-08T00:19:51.980Z,99181.28
2023-03-08T00:22:18.671Z,99126.94
2023-03-08T00:24:45.391Z,99096.44
2023-03-08T00:27:12.098Z,99120.28
2023-03-08T00:29:38.886Z,99150.09
2023-03-08T00:32:05.836Z,99149.09
2023-03-08T00:34:32.559Z,99162.72
2023-03-08T00:36:59.299Z,99163.44
2023-03-08T00:39:25.974Z,99138.06
2023-03-08T00:41:52.758Z,99146.44
2023-03-08T00:44:19.430Z,99135.53
2023-03-08T00:46:46.229Z,99100.78
2023-03-08T00:49:13.540Z,99152.53
2023-03-08T00:51:40.327Z,99131.25
2023-03-08T00:54:07.083Z,99141.63
2023-03-08T00:56:33.835Z,99111.78
2023-03-08T00:59:00.620Z,99149.13
2023-03-08T01:01:27.382Z,99172.94
2023-03-08T01:03:54.185Z,99093.16
2023-03-08T01:06:20.971Z,99130.59
2023-03-08T01:08:47.864Z,99156.88
2023-03-08T01:11:26.200Z,99120.28
2023-03-08T01:13:54.049Z,99157.69
2023-03-08T01:16:24.564Z,99170.47
2023-03-08T01:18:51.913Z,99142.44
2023-03-08T01:21:18.860Z,99160.28
2023-03-08T01:23:45.682Z,99145.81
2023-03-08T01:26:15.126Z,99167.91
2023-03-08T01:28:42.714Z,99176.31
2023-03-08T01:31:15.380Z,99167.81
2023-03-08T01:33:43.400Z,99108.47
2023-03-08T01:36:13.412Z,99171.31
2023-03-08T01:38:40.199Z,99144.09
2023-03-08T01:41:09.388Z,99163.66
2023-03-08T01:43:39.061Z,99106.97
2023-03-08T01:46:20.662Z,99164.06
2023-03-08T01:49:07.600Z,99116.66
2023-03-08T01:51:39.164Z,99155.53
2023-03-08T01:54:13.121Z,99150.53
2023-03-08T01:56:42.905Z,99103.84
2023-03-08T01:59:10.514Z,99104.00
2023-03-08T02:01:37.522Z,99144.69
2023-03-08T02:04:04.369Z,99163.41
2023-03-08T02:06:31.082Z,99132.00
2023-03-08T02:08:58.500Z,99126.03
2023-03-08T02:11:25.905Z,99120.09
2023-03-08T02:13:54.627Z,99168.56
2023-03-08T02:16:22.739Z,99076.78
2023-03-08T02:19:01.677Z,99164.31
2023-03-08T02:21:30.308Z,99127.66
2023-03-08T02:24:07.215Z,99146.31
2023-03-08T02:26:37.173Z,99114.03
2023-03-08T02:29:03.953Z,99117.41
2023-03-08T02:31:30.685Z,99080.88
2023-03-08T02:33:57.376Z,99054.53
2023-03-08T02:36:24.084Z,99078.22
2023-03-08T02:38:50.795Z,99054.56
2023-03-08T02:41:17.582Z,99096.13
2023-03-08T02:43:44.334Z,99068.97
2023-03-08T02:46:12.571Z,99124.09
2023-03-08T02:48:39.315Z,99077.41
2023-03-08T02:51:06.304Z,99068.09
2023-03-08T02:53:33.003Z,99056.31
2023-03-08T02:55:59.703Z,99080.13
2023-03-08T02:58:26.423Z,99080.03
2023-03-08T03:00:53.139Z,99080.06
2023-03-08T03:03:19.843Z,99090.28
2023-03-08T03:05:46.531Z,99101.25
2023-03-08T03:08:13.290Z,99043.53
2023-03-08T03:13:06.640Z,99079.13
2023-03-08T03:15:34.413Z,99088.44
2023-03-08T03:18:01.227Z,99048.59
2023-03-08T03:20:27.943Z,99071.56
2023-03-08T03:22:54.646Z,99052.19
2023-03-08T03:25:21.428Z,99126.03
2023-03-08T03:27:48.102Z,99070.84
2023-03-08T03:30:14.996Z,99086.94
2023-03-08T03:32:41.762Z,99072.50
2023-03-08T03:35:08.916Z,99069.09
2023-03-08T03:37:36.715Z,99019.03
2023-03-08T03:40:05.165Z,99012.16
2023-03-08T03:42:31.953Z,99074.13
2023-03-08T03:44:58.674Z,99085.09
2023-03-08T03:47:25.437Z,99077.59
2023-03-08T03:49:52.125Z,99052.91
2023-03-08T03:52:18.829Z,99013.03
2023-03-08T03:54:45.564Z,99042.75
2023-03-08T03:57:12.300Z,99015.56
2023-03-08T03:59:39.022Z,99034.38
2023-03-08T04:02:05.782Z,99068.50
2023-03-08T04:04:32.600Z,99048.09
2023-03-08T04:06:59.297Z,99025.19
2023-03-08T04:09:25.987Z,99041.31
2023-03-08T04:11:52.830Z,99077.06
2023-03-08T04:14:19.569Z,99077.06
2023-03-08T04:16:46.291Z,99024.34
2023-03-08T04:19:13.818Z,99016.75
2023-03-08T04:21:40.550Z,99087.16
2023-03-08T04:24:07.812Z,98982.78
2023-03-08T04:26:34.732Z,99005.66
2023-03-08T04:29:05.767Z,99019.31
2023-03-08T04:31:35.157Z,99085.47
2023-03-08T04:34:03.030Z,99039.59
2023-03-08T04:36:29.842Z,99035.44
2023-03-08T04:38:56.742Z,99085.56
2023-03-08T04:41:24.038Z,99093.28
2023-03-08T04:43:52.944Z,99029.47
2023-03-08T04:46:22.894Z,99040.41
2023-03-08T04:48:52.880Z,99014.84
2023-03-08T04:51:20.476Z,99027.53
2023-03-08T04:53:47.348Z,99041.97
2023-03-08T04:56:15.725Z,99077.66
2023-03-08T04:58:42.932Z,99080.22
2023-03-08T05:01:15.693Z,99041.16
2023-03-08T05:03:43.577Z,99035.16
2023-03-08T05:06:12.013Z,99068.94
2023-03-08T05:08:38.768Z,98989.13
2023-03-08T05:11:06.281Z,99037.69
2023-03-08T05:13:36.245Z,98993.72
2023-03-08T05:16:07.038Z,99068.41
2023-03-08T05:18:33.940Z,99040.44
2023-03-08T05:21:07.045Z,98987.06
2023-03-08T05:23:34.691Z,99065.28
2023-03-08T05:26:03.321Z,98985.66
2023-03-08T05:28:32.338Z,99073.31
2023-03-08T05:31:12.582Z,99067.31
2023-03-08T05:33:40.374Z,99062.06
2023-03-08T05:36:08.139Z,98964.38
2023-03-08T05:38:35.273Z,99072.19
2023-03-08T05:41:03.744Z,99054.22
2023-03-08T05:43:30.896Z,99003.25
2023-03-08T05:46:03.809Z,99044.81
2023-03-08T05:48:31.195Z,99054.94
2023-03-08T05:50:58.226Z,99025.25
2023-03-08T05:53:25.322Z,99009.13
2023-03-08T05:55:52.705Z,99020.22
2023-03-08T05:58:19.420Z,99044.84
2023-03-08T06:00:46.095Z,98974.44
2023-03-08T06:03:13.040Z,99044.91
2023-03-08T06:05:39.866Z,98972.72
2023-03-08T06:08:06.651Z,98993.09
2023-03-08T06:10:33.564Z,99037.28
2023-03-08T06:13:00.289Z,98988.06
2023-03-08T06:15:27.078Z,99003.31
2023-03-08T06:17:54.287Z,99027.97
2023-03-08T06:20:21.009Z,99022.88
2023-03-08T06:22:47.893Z,99022.88
2023-03-08T06:25:14.768Z,99018.78
2023-03-08T06:27:41.554Z,99032.53
2023-03-08T06:30:08.870Z,99022.34
2023-03-08T06:32:37.696Z,99037.69
2023-03-08T06:35:04.928Z,99029.09
2023-03-08T06:37:35.849Z,98999.31
2023-03-08T06:40:03.865Z,99068.97
2023-03-08T06:42:40.781Z,99012.97
2023-03-08T06:45:09.213Z,98991.75
2023-03-08T06:47:35.918Z,99010.44
2023-03-08T06:50:03.143Z,98990.91
2023-03-08T06:52:35.072Z,99026.53
2023-03-08T06:55:01.818Z,99052.91
2023-03-08T06:57:28.588Z,99007.91
2023-03-08T06:59:55.330Z,98975.75
2023-03-08T07:02:22.060Z,99016.53
2023-03-08T07:04:49.759Z,99039.50
2023-03-08T07:07:16.727Z,99036.94
2023-03-08T07:09:43.537Z,99058.16
2023-03-08T07:12:10.331Z,98995.25
2023-03-08T07:14:37.157Z,99030.06
2023-03-08T07:17:03.891Z,99038.47
2023-03-08T07:19:31.636Z,98995.97
2023-03-08T07:21:58.349Z,99071.50
2023-03-08T07:24:25.117Z,99026.44
2023-03-08T07:26:51.894Z,99048.41
2023-03-08T07:29:18.651Z,99036.47
2023-03-08T07:31:45.435Z,99047.41
2023-03-08T07:34:12.414Z,99014.28
2023-03-08T07:36:40.304Z,99055.81
2023-03-08T07:39:07.167Z,99024.34
2023-03-08T07:41:34.881Z,99047.81
2023-03-08T07:44:02.630Z,99059.75
2023-03-08T07:46:30.113Z,99043.94
2023-03-08T07:48:57.057Z,99084.50
2023-03-08T07:51:23.968Z,99041.09
2023-03-08T07:53:52.489Z,99084.78
2023-03-08T07:56:19.327Z,99081.09
2023-03-08T07:58:46.295Z,99045.78
2023-03-08T08:01:14.253Z,99080.75
2023-03-08T08:03:41.386Z,99093.78
2023-03-08T08:06:08.670Z,99084.31
2023-03-08T08:08:35.539Z,99064.72
2023-03-08T08:11:09.636Z,99050.63
2023-03-08T08:13:36.354Z,99051.41
2023-03-08T08:16:03.760Z,99094.56
2023-03-08T08:18:30.429Z,99071.03
2023-03-08T08:21:05.252Z,99029.47
2023-03-08T08:23:33.032Z,99060.13
2023-03-08T08:25:59.794Z,99064.94
2023-03-08T08:28:27.410Z,99091.19
2023-03-08T08:31:04.176Z,99081.34
2023-03-08T08:33:31.894Z,99102.75
2023-03-08T08:35:59.684Z,99096.94
2023-03-08T08:38:26.946Z,99056.84
2023-03-08T08:40:53.830Z,99090.75
2023-03-08T08:43:20.612Z,99087.81
2023-03-08T08:45:49.892Z,99082.16
2023-03-08T08:48:16.653Z,99057.31
2023-03-08T08:50:43.352Z,99089.94
2023-03-08T08:53:10.627Z,99104.28
2023-03-08T08:55:38.939Z,99070.97
2023-03-08T08:58:07.410Z,99090.66
2023-03-08T09:00:35.485Z,99106.97
2023-03-08T09:03:03.846Z,99107.72
2023-03-08T09:05:32.074Z,99107.25
2023-03-08T09:08:00.696Z,99070.03
2023-03-08T09:10:29.163Z,99108.34
2023-03-08T09:12:57.855Z,99107.13
2023-03-08T09:15:25.905Z,99118.22
2023-03-08T09:17:52.805Z,99078.19
2023-03-08T09:20:22.163Z,99111.25
2023-03-08T09:22:50.459Z,99085.19
2023-03-08T09:25:19.675Z,99059.97
2023-03-08T09:27:46.539Z,99096.78
2023-03-08T09:30:14.983Z,99096.19
2023-03-08T09:32:42.055Z,99113.09
2023-03-08T09:35:10.176Z,99108.69
2023-03-08T09:37:38.265Z,99099.97
2023-03-08T09:40:09.795Z,99070.91
2023-03-08T09:42:38.436Z,99087.00
2023-03-08T09:45:23.566Z,99108.69
2023-03-08T09:47:57.658Z,99110.69
2023-03-08T09:50:37.821Z,99108.06
2023-03-08T09:53:07.599Z,99109.09
2023-03-08T09:55:36.384Z,99096.00
2023-03-08T09:58:15.328Z,99080.25
2023-03-08T10:00:42.211Z,99084.94
2023-03-08T10:03:27.131Z,99108.28
2023-03-08T10:06:18.102Z,99105.84
2023-03-08T10:09:02.435Z,99096.22
2023-03-08T10:11:48.242Z,99091.34
2023-03-08T10:14:24.400Z,99098.28
2023-03-08T10:16:57.353Z,99083.16
2023-03-08T10:19:36.342Z,99035.94
2023-03-08T10:22:18.617Z,99078.41
2023-03-08T10:25:12.581Z,99089.13
2023-03-08T10:27:39.363Z,99069.91
2023-03-08T10:30:19.775Z,99078.59
2023-03-08T10:32:50.045Z,99099.84
2023-03-08T10:35:18.319Z,99023.84
2023-03-08T10:37:51.718Z,99081.66
2023-03-08T10:40:22.046Z,99055.66
2023-03-08T10:43:00.021Z,99052.88
2023-03-08T10:45:29.286Z,99065.91
2023-03-08T10:48:06.583Z,99069.69
2023-03-08T10:50:36.541Z,99090.28
2023-03-08T10:53:20.025Z,99081.06
2023-03-08T10:55:47.815Z,99103.72
2023-03-08T10:58:41.035Z,99094.47
2023-03-08T11:01:26.807Z,99104.69
2023-03-08T11:04:02.780Z,99106.63
2023-03-08T11:06:29.902Z,99106.81
2023-03-08T11:09:00.275Z,99099.94
2023-03-08T11:11:28.091Z,99095.41
2023-03-08T11:13:55.920Z,99098.13
2023-03-08T11:16:36.268Z,99060.41
2023-03-08T11:19:26.413Z,99107.97
2023-03-08T11:22:04.046Z,99105.84
2023-03-08T11:24:56.624Z,99059.25
2023-03-08T11:27:26.223Z,99102.06
2023-03-08T11:29:59.090Z,99102.91
2023-03-08T11:32:34.129Z,99075.44
2023-03-08T11:35:22.385Z,99098.47
2023-03-08T11:37:56.970Z,99069.78
2023-03-08T11:40:56.048Z,99092.06
2023-03-08T11:43:41.503Z,99100.66
2023-03-08T11:46:14.318Z,99096.88
2023-03-08T11:48:41.033Z,99108.28
2023-03-08T11:51:15.395Z,99100.81
2023-03-08T11:54:11.285Z,99098.13
2023-03-08T11:56:44.792Z,99055.72
2023-03-08T11:59:21.766Z,99034.19
2023-03-08T12:02:06.730Z,99092.19
2023-03-08T12:04:57.644Z,99059.03
2023-03-08T12:07:36.637Z,99101.59
2023-03-08T12:10:26.003Z,99087.22
2023-03-08T12:12:59.317Z,99094.59
2023-03-08T12:15:35.009Z,99095.59
2023-03-08T12:18:37.829Z,99099.78
2023-03-08T12:21:30.402Z,99095.31
2023-03-08T12:24:07.578Z,99051.47
2023-03-08T12:27:12.299Z,99081.22
2023-03-08T12:29:57.211Z,99103.69
2023-03-08T12:32:25.989Z,99079.56
2023-03-08T12:35:07.267Z,99053.88
2023-03-08T12:37:34.034Z,99071.31
2023-03-08T12:40:08.474Z,99075.25
2023-03-08T12:42:38.796Z,99101.16
2023-03-08T12:45:28.626Z,99086.31
2023-03-08T12:48:15.686Z,99077.34
2023-03-08T12:50:54.521Z,99056.06
2023-03-08T12:53:34.248Z,99050.59
2023-03-08T12:56:31.454Z,99097.19
2023-03-08T12:59:02.663Z,99093.81
2023-03-08T13:01:35.336Z,99094.84
2023-03-08T13:04:05.273Z,99081.91
2023-03-08T13:06:52.307Z,99055.03
2023-03-08T13:09:28.955Z,99083.56
2023-03-08T13:12:20.516Z,99085.84
2023-03-08T13:15:25.604Z,99091.13
2023-03-08T13:18:05.956Z,99064.72
2023-03-08T13:20:53.953Z,99092.19
2023-03-08T13:24:13.359Z,99086.00
2023-03-08T13:27:13.715Z,99087.91
2023-03-08T13:29:43.849Z,99062.66
2023-03-08T13:32:16.764Z,99060.66
2023-03-08T13:34:46.513Z,99074.38
2023-03-08T13:37:24.299Z,99081.56
2023-03-08T13:39:56.097Z,99022.03
2023-03-08T13:42:25.279Z,99082.38
2023-03-08T13:44:53.569Z,99051.09
2023-03-08T13:47:26.398Z,99073.50
2023-03-08T13:49:55.838Z,99092.16
2023-03-08T13:52:27.131Z,99091.78
2023-03-08T13:55:00.200Z,99053.38
2023-03-08T13:57:28.019Z,99094.19
2023-03-08T13:59:57.988Z,99071.88
2023-03-08T14:02:27.735Z,99059.63
2023-03-08T14:04:54.755Z,99065.91
2023-03-08T14:07:28.892Z,99079.97
2023-03-08T14:09:56.862Z,99090.81
2023-03-08T14:12:30.072Z,99068.00
2023-03-08T14:15:04.588Z,99092.72
2023-03-08T14:17:34.264Z,99029.69
2023-03-08T14:20:05.492Z,99020.00
2023-03-08T14:22:39.542Z,99058.25
2023-03-08T14:25:20.404Z,99084.00
2023-03-08T14:27:47.215Z,99021.22
2023-03-08T14:30:25.347Z,99080.19
2023-03-08T14:33:22.026Z,99011.16
2023-03-08T14:35:58.772Z,99047.41
2023-03-08T14:38:28.725Z,99068.03
2023-03-08T14:40:56.734Z,99086.44
2023-03-08T14:43:26.014Z,99020.22
2023-03-08T14:45:55.579Z,99072.94
2023-03-08T14:48:44.724Z,99060.75
2023-03-08T14:51:17.563Z,99071.72
2023-03-08T14:53:44.585Z,99046.84
2023-03-08T14:56:16.782Z,99077.38
2023-03-08T14:58:53.923Z,99037.50
2023-03-08T15:01:29.842Z,99069.75
2023-03-08T15:03:57.565Z,99026.31
2023-03-08T15:06:28.410Z,99047.38
2023-03-08T15:08:55.706Z,99062.94
2023-03-08T15:11:23.569Z,99024.03
2023-03-08T15:13:50.951Z,99070.75
2023-03-08T15:16:18.054Z,99012.06
2023-03-08T15:18:44.833Z,99012.47
2023-03-08T15:21:20.985Z,99015.44
2023-03-08T15:23:49.270Z,99040.50
2023-03-08T15:26:22.659Z,99069.97
2023-03-08T15:28:49.488Z,99058.28
2023-03-08T15:31:16.206Z,99029.47
2023-03-08T15:33:42.967Z,99046.50
2023-03-08T15:36:19.321Z,99044.34
2023-03-08T15:38:46.525Z,99053.94
2023-03-08T15:41:14.499Z,99066.91
2023-03-08T15:43:41.619Z,99054.22
2023-03-08T15:46:13.614Z,99076.69
2023-03-08T15:48:40.389Z,99017.78
2023-03-08T15:51:21.654Z,99043.53
2023-03-08T15:53:49.466Z,99070.44
2023-03-08T15:56:16.876Z,99048.03
2023-03-08T15:58:43.779Z,99005.28
2023-03-08T16:01:12.088Z,99029.78
2023-03-08T16:03:39.173Z,99037.50
2023-03-08T16:06:11.113Z,99078.53
2023-03-08T16:08:38.525Z,99032.97
2023-03-08T16:11:09.738Z,99078.69
2023-03-08T16:13:36.547Z,99013.97
2023-03-08T16:16:04.900Z,99044.22
2023-03-08T16:18:32.529Z,99048.34
2023-03-08T16:20:59.290Z,99038.19
2023-03-08T16:23:26.781Z,99058.09
2023-03-08T16:26:15.382Z,99032.00
2023-03-08T16:28:45.113Z,99024.94
2023-03-08T16:31:12.351Z,99026.16
2023-03-08T16:33:39.821Z,99017.91
2023-03-08T16:36:07.294Z,99050.59
2023-03-08T16:38:34.062Z,99013.13
2023-03-08T16:41:12.238Z,99031.44
2023-03-08T16:43:46.925Z,98991.56
2023-03-08T16:46:16.664Z,99052.19
2023-03-08T16:48:43.541Z,99021.56
2023-03-08T16:51:14.767Z,99073.25
2023-03-08T16:53:41.554Z,99025.28
2023-03-08T16:56:08.262Z,99015.75
2023-03-08T16:58:34.966Z,99013.59
2023-03-08T17:01:01.838Z,99073.25
2023-03-08T17:03:28.583Z,99034.31
2023-03-08T17:05:55.406Z,99068.44
2023-03-08T17:08:22.129Z,99024.06
2023-03-08T17:10:48.799Z,99060.94
2023-03-08T17:13:15.512Z,99051.38
2023-03-08T17:15:44.288Z,99077.94
2023-03-08T17:18:11.495Z,99082.28
2023-03-08T17:20:42.104Z,99079.56
2023-03-08T17:23:10.930Z,99035.69
2023-03-08T17:25:41.087Z,99060.66
2023-03-08T17:28:10.150Z,99086.13
2023-03-08T17:30:39.478Z,99031.47
2023-03-08T17:33:06.235Z,99093.53
2023-03-08T17:35:33.216Z,99044.56
2023-03-08T17:38:00.073Z,99023.03
2023-03-08T17:40:26.873Z,99053.06
2023-03-08T17:42:53.566Z,99019.22
2023-03-08T17:45:20.272Z,99055.16
2023-03-08T17:47:47.007Z,99055.34
2023-03-08T17:50:13.810Z,99034.94
2023-03-08T17:52:41.590Z,99097.88
2023-03-08T17:55:08.976Z,99080.09
2023-03-08T17:57:36.890Z,99095.28
2023-03-08T18:00:05.736Z,99096.47
2023-03-08T18:02:33.153Z,99097.53
2023-03-08T18:05:00.014Z,99048.47
2023-03-08T18:07:28.296Z,99096.09
2023-03-08T18:09:55.060Z,99040.50
2023-03-08T18:12:21.876Z,99070.31
2023-03-08T18:14:52.518Z,99071.41
2023-03-08T18:17:20.575Z,99035.94
2023-03-08T18:19:48.310Z,99091.94
2023-03-08T18:22:15.555Z,99073.22
2023-03-08T18:24:42.574Z,99073.38
2023-03-08T18:27:09.341Z,99052.41
2023-03-08T18:29:36.771Z,99052.38
2023-03-08T18:32:04.565Z,99071.19
2023-03-08T18:34:31.233Z,99068.00
2023-03-08T18:37:01.059Z,99102.75
2023-03-08T18:39:27.763Z,99097.63
2023-03-08T18:41:56.932Z,99072.41
2023-03-08T18:44:26.458Z,99043.69
2023-03-08T18:46:53.218Z,99067.22
2023-03-08T18:49:20.106Z,99046.16
2023-03-08T18:51:47.022Z,99091.66
2023-03-08T18:54:17.532Z,99111.34
2023-03-08T18:56:44.705Z,99114.13
2023-03-08T18:59:14.004Z,99115.72
2023-03-08T19:01:40.990Z,99083.91
2023-03-08T19:04:08.204Z,99099.06
2023-03-08T19:06:36.633Z,99108.34
2023-03-08T19:09:17.191Z,99125.34
2023-03-08T19:11:45.024Z,99104.16
2023-03-08T19:14:13.033Z,99053.47
2023-03-08T19:16:40.045Z,99085.72
2023-03-08T19:19:10.216Z,99135.66
2023-03-08T19:21:48.768Z,99111.31
2023-03-08T19:24:17.526Z,99106.31
2023-03-08T19:26:47.559Z,99070.06
2023-03-08T19:29:21.686Z,99144.78
2023-03-08T19:31:56.544Z,99134.47
2023-03-08T19:34:26.946Z,99051.78
2023-03-08T19:36:54.657Z,99131.25
2023-03-08T19:39:33.548Z,99064.47
2023-03-08T19:42:02.958Z,99146.59
2023-03-08T19:44:30.566Z,99140.53
2023-03-08T19:46:57.836Z,99150.06
2023-03-08T19:49:29.601Z,99127.41
2023-03-08T19:51:57.919Z,99145.84
2023-03-08T19:54:26.490Z,99089.31
2023-03-08T19:56:53.824Z,99108.13
2023-03-08T19:59:20.883Z,99089.66
2023-03-08T20:01:50.076Z,99126.88
2023-03-08T20:04:17.422Z,99067.31
2023-03-08T20:06:46.936Z,99151.13
2023-03-08T20:09:21.803Z,99153.03
2023-03-08T20:11:53.261Z,99157.41
2023-03-08T20:14:21.147Z,99077.13
2023-03-08T20:16:48.088Z,99080.50
2023-03-08T20:19:15.028Z,99089.75
2023-03-08T20:21:42.065Z,99099.88
2023-03-08T20:24:09.297Z,99099.97
2023-03-08T20:26:37.899Z,99171.28
2023-03-08T20:29:05.564Z,99142.25
2023-03-08T20:31:33.168Z,99095.84
2023-03-08T20:34:00.837Z,99168.81
2023-03-08T20:36:28.711Z,99104.53
2023-03-08T20:38:57.326Z,99125.69
2023-03-08T20:41:24.405Z,99169.88
2023-03-08T20:43:55.661Z,99180.16
2023-03-08T20:46:26.317Z,99185.34
2023-03-08T20:48:54.130Z,99130.16
2023-03-08T20:51:22.713Z,99145.47
2023-03-08T20:53:51.893Z,99123.47
2023-03-08T20:56:21.364Z,99185.19
2023-03-08T20:58:48.717Z,99180.19
2023-03-08T21:01:19.692Z,99098.84
2023-03-08T21:03:47.494Z,99192.06
2023-03-08T21:06:21.838Z,99182.78
2023-03-08T21:08:50.206Z,99121.09
2023-03-08T21:11:17.818Z,99117.66
2023-03-08T21:13:46.229Z,99112.66
2023-03-08T21:16:15.915Z,99137.31
2023-03-08T21:18:46.045Z,99173.91
2023-03-08T21:21:22.060Z,99188.88
2023-03-08T21:23:50.460Z,99188.94
2023-03-08T21:26:17.369Z,99119.63
2023-03-08T21:28:46.729Z,99138.19
2023-03-08T21:31:14.220Z,99137.41
2023-03-08T21:33:41.357Z,99150.22
2023-03-08T21:36:08.436Z,99194.94
2023-03-08T21:38:35.372Z,99146.59
2023-03-08T21:41:02.578Z,99141.53
2023-03-08T21:43:29.582Z,99132.38
2023-03-08T21:45:56.774Z,99174.97
2023-03-08T21:48:23.787Z,99160.38
2023-03-08T21:50:50.686Z,99174.56
2023-03-08T21:53:17.630Z,99168.94
2023-03-08T21:55:44.590Z,99165.63
2023-03-08T21:58:11.437Z,99108.94
2023-03-08T22:00:38.298Z,99117.47
2023-03-08T22:03:06.572Z,99122.63
2023-03-08T22:05:33.506Z,99136.38
2023-03-08T22:08:00.390Z,99129.66
2023-03-08T22:10:27.240Z,99182.47
2023-03-08T22:12:54.040Z,99123.81
2023-03-08T22:15:20.763Z,99157.78
2023-03-08T22:17:47.511Z,99130.66
2023-03-08T22:20:14.281Z,99202.72
2023-03-08T22:22:41.191Z,99192.56
2023-03-08T22:25:08.604Z,99153.53
2023-03-08T22:27:35.450Z,99184.19
2023-03-08T22:30:03.396Z,99115.41
2023-03-08T22:32:30.097Z,99144.94
2023-03-08T22:34:57.335Z,99183.31
2023-03-08T22:37:24.045Z,99180.66
2023-03-08T22:39:50.890Z,99141.59
2023-03-08T22:42:17.615Z,99143.47
2023-03-08T22:44:44.477Z,99152.88
2023-03-08T22:47:11.265Z,99123.34
2023-03-08T22:49:38.123Z,99142.72
2023-03-08T22:52:05.575Z,99143.56
2023-03-08T22:54:32.258Z,99136.00
2023-03-08T22:56:59.024Z,99136.16
2023-03-08T22:59:25.906Z,99161.56
2023-03-08T23:01:53.997Z,99207.38
2023-03-08T23:04:21.278Z,99162.44
2023-03-08T23:06:48.370Z,99152.31
2023-03-08T23:09:17.124Z,99148.25
2023-03-08T23:11:44.758Z,99207.53
2023-03-08T23:14:12.243Z,99174.41
2023-03-08T23:16:44.935Z,99156.72
2023-03-08T23:19:18.542Z,99172.09
2023-03-08T23:21:45.504Z,99192.41
2023-03-08T23:24:12.722Z,99207.56
2023-03-08T23:26:40.055Z,99135.56
2023-03-08T23:29:07.229Z,99163.59
2023-03-08T23:31:36.367Z,99193.34
2023-03-08T23:34:05.496Z,99201.94
2023-03-08T23:36:33.393Z,99193.47
2023-03-08T23:39:04.221Z,99136.84
2023-03-08T23:41:32.566Z,99206.53
2023-03-08T23:44:01.951Z,99157.41
2023-03-08T23:46:28.830Z,99144.03
2023-03-08T23:48:57.119Z,99233.41
2023-03-08T23:51:26.006Z,99196.13
2023-03-08T23:53:54.819Z,99163.09
2023-03-08T23:56:27.295Z,99172.44
2023-03-08T23:58:55.846Z,99249.09
